Time;durP1;ratioP1;P1;durP2;ratioP2;P2;SDS_P1;SDS_P2;PMS_P1;PMS_P2;Temp;Humidity;BMP_temperature;BMP_pressure;BME280_temperature;BME280_humidity;BME280_pressure;Samples;Min_cycle;Max_cycle;Signal;HPM_P1;HPM_P2
2021/10/10 00:00:57;;;;;;;18.02;6.67;;;;;;;4.45;58.42;102299.98;1735509;82;20969;-52
2021/10/10 00:03:23;;;;;;;14.38;5.83;;;;;;;4.38;58.98;102307.38;1735104;82;20980;-52
2021/10/10 00:05:50;;;;;;;13.00;6.67;;;;;;;4.29;59.73;102304.95;1735206;82;20917;-51
2021/10/10 00:08:17;;;;;;;8.58;5.72;;;;;;;4.21;60.20;102293.95;1735344;82;20977;-51
2021/10/10 00:10:43;;;;;;;16.42;6.12;;;;;;;4.12;60.63;102299.20;1735239;82;21040;-52
2021/10/10 00:13:10;;;;;;;13.48;5.92;;;;;;;4.05;60.65;102300.19;1714251;82;20980;-52
2021/10/10 00:15:36;;;;;;;8.88;5.75;;;;;;;3.89;60.29;102294.46;1735188;81;21498;-52
2021/10/10 00:18:03;;;;;;;16.25;6.62;;;;;;;3.89;60.29;102294.46;1735527;82;20985;-52
2021/10/10 00:20:30;;;;;;;12.88;6.20;;;;;;;3.80;60.34;102288.98;1735227;82;20925;-52
2021/10/10 00:22:56;;;;;;;13.25;6.12;;;;;;;3.74;59.81;102293.06;1735430;82;21118;-52
2021/10/10 00:25:22;;;;;;;11.00;5.92;;;;;;;3.68;60.68;102292.83;1735196;81;20996;-51
2021/10/10 00:27:49;;;;;;;17.48;6.85;;;;;;;3.62;60.55;102297.69;1735271;82;20913;-52
2021/10/10 00:30:17;;;;;;;24.43;6.00;;;;;;;3.50;61.92;102293.38;1737374;81;21055;-52
2021/10/10 00:32:43;;;;;;;12.13;6.25;;;;;;;3.45;62.53;102292.78;1749275;82;21553;-52
2021/10/10 00:35:10;;;;;;;11.70;5.08;;;;;;;3.45;62.53;102292.78;1749404;82;21074;-52
2021/10/10 00:37:36;;;;;;;12.70;5.08;;;;;;;3.39;62.49;102289.95;1749127;82;20928;-52
2021/10/10 00:40:04;;;;;;;16.27;6.55;;;;;;;3.35;62.31;102293.20;1749315;82;20928;-52
2021/10/10 00:42:31;;;;;;;18.32;6.90;;;;;;;3.31;62.16;102290.05;1749220;82;21007;-52
2021/10/10 00:44:57;;;;;;;13.13;6.30;;;;;;;3.27;63.00;102292.02;1749034;82;20928;-52
2021/10/10 00:47:24;;;;;;;15.25;6.72;;;;;;;3.22;63.07;102290.97;1749262;82;21123;-52
2021/10/10 00:49:50;;;;;;;20.68;7.10;;;;;;;3.16;63.27;102296.31;1749166;82;21020;-52
2021/10/10 00:52:17;;;;;;;22.10;6.58;;;;;;;3.12;63.39;102290.98;1749233;82;20955;-52
2021/10/10 00:54:46;;;;;;;11.28;6.47;;;;;;;3.06;63.85;102291.59;1749126;82;21024;-52
2021/10/10 00:57:13;;;;;;;18.37;6.03;;;;;;;3.01;64.46;102300.35;1749150;81;20948;-52
2021/10/10 00:59:45;;;;;;;13.62;5.53;;;;;;;2.94;64.76;102293.23;1749562;82;21121;-52
2021/10/10 01:02:13;;;;;;;12.03;6.08;;;;;;;2.91;64.91;102287.13;1748947;82;21006;-53
2021/10/10 01:04:40;;;;;;;12.63;5.53;;;;;;;2.86;66.14;102292.90;1749113;82;20897;-52
2021/10/10 01:07:07;;;;;;;16.25;6.67;;;;;;;2.84;67.95;102291.10;1749200;82;20901;-52
2021/10/10 01:09:35;;;;;;;16.67;6.30;;;;;;;2.81;69.18;102296.95;1749461;82;21015;-52
2021/10/10 01:12:04;;;;;;;16.15;5.47;;;;;;;2.80;70.04;102297.76;1749201;82;21080;-53
2021/10/10 01:14:33;;;;;;;16.67;6.10;;;;;;;2.78;70.67;102303.22;1720948;82;20995;-53
2021/10/10 01:17:00;;;;;;;12.40;5.97;;;;;;;2.77;70.42;102301.86;1749176;82;20979;-52
2021/10/10 01:19:33;;;;;;;13.83;6.33;;;;;;;2.75;70.54;102296.70;1748976;82;21040;-52
2021/10/10 01:22:00;;;;;;;11.73;5.85;;;;;;;2.73;70.49;102305.56;1749196;82;20893;-52
2021/10/10 01:24:27;;;;;;;17.62;5.58;;;;;;;2.72;70.41;102304.23;1749214;82;22313;-53
2021/10/10 01:26:54;;;;;;;15.53;5.55;;;;;;;2.71;70.17;102303.77;1749015;82;20892;-52
2021/10/10 01:29:20;;;;;;;12.78;5.72;;;;;;;2.75;68.72;102300.92;1749122;82;20996;-52
2021/10/10 01:31:47;;;;;;;12.45;5.95;;;;;;;2.82;67.80;102295.28;1739859;81;21004;-52
2021/10/10 01:34:13;;;;;;;13.13;6.05;;;;;;;2.90;66.97;102293.91;1735299;82;20949;-51
2021/10/10 01:36:41;;;;;;;14.10;6.17;;;;;;;2.97;66.30;102295.91;1735191;81;21165;-52
2021/10/10 01:39:07;;;;;;;15.18;6.50;;;;;;;3.03;65.91;102288.91;1735146;82;22187;-52
2021/10/10 01:41:36;;;;;;;12.70;5.80;;;;;;;3.07;65.48;102292.06;1735173;82;21478;-52
2021/10/10 01:44:03;;;;;;;12.05;6.10;;;;;;;3.11;65.14;102298.20;1714394;82;21542;-52
2021/10/10 01:46:29;;;;;;;10.72;5.40;;;;;;;3.12;64.88;102297.39;1735318;82;21589;-52
2021/10/10 01:48:56;;;;;;;10.00;5.60;;;;;;;3.16;64.88;102295.03;1735336;82;21215;-52
2021/10/10 01:51:22;;;;;;;8.23;5.72;;;;;;;3.18;64.78;102297.63;1712917;82;20952;-52
2021/10/10 01:53:49;;;;;;;11.80;5.72;;;;;;;3.19;64.74;102298.52;1735255;82;20995;-52
2021/10/10 01:56:16;;;;;;;16.67;5.80;;;;;;;3.19;64.78;102298.52;1735253;81;20937;-52
2021/10/10 01:58:43;;;;;;;14.55;5.72;;;;;;;3.18;64.84;102294.22;1735501;82;21008;-52
2021/10/10 02:01:10;;;;;;;9.50;5.33;;;;;;;3.17;65.02;102299.73;1735194;82;21171;-52
2021/10/10 02:03:37;;;;;;;12.07;5.92;;;;;;;3.15;65.06;102306.05;1735024;82;20976;-52
2021/10/10 02:06:03;;;;;;;13.13;5.67;;;;;;;3.13;65.35;102299.99;1735172;82;20949;-52
2021/10/10 02:08:30;;;;;;;11.38;5.62;;;;;;;3.10;65.95;102301.56;1734978;81;20972;-52
2021/10/10 02:10:59;;;;;;;16.35;6.60;;;;;;;3.07;65.94;102303.58;1735294;81;20953;-52
2021/10/10 02:13:25;;;;;;;22.90;6.00;;;;;;;3.04;66.04;102306.02;1735167;81;21956;-52
2021/10/10 02:15:51;;;;;;;13.48;5.45;;;;;;;3.01;66.22;102302.91;1735491;82;21391;-52
2021/10/10 02:18:19;;;;;;;11.28;5.90;;;;;;;2.97;66.30;102304.02;1735186;82;21510;-52
2021/10/10 02:20:46;;;;;;;12.05;6.28;;;;;;;2.92;66.55;102305.09;1735240;82;21474;-52
2021/10/10 02:23:14;;;;;;;10.55;4.90;;;;;;;2.88;66.75;102301.94;1734852;82;21019;-52
2021/10/10 02:25:41;;;;;;;9.75;5.50;;;;;;;2.84;67.07;102306.45;1735117;82;21143;-52
2021/10/10 02:28:08;;;;;;;10.45;5.62;;;;;;;2.79;67.40;102306.24;1735314;81;20964;-51
2021/10/10 02:30:34;;;;;;;15.85;6.40;;;;;;;2.75;68.01;102304.37;1712987;81;21013;-51
2021/10/10 02:33:00;;;;;;;8.83;5.28;;;;;;;2.73;68.33;102311.09;1749252;82;21011;-52
2021/10/10 02:35:27;;;;;;;8.93;5.40;;;;;;;2.70;68.61;102310.97;1749201;82;21540;-52
2021/10/10 02:37:53;;;;;;;14.53;6.42;;;;;;;2.67;68.28;102317.23;1749204;82;21053;-52
2021/10/10 02:40:19;;;;;;;17.15;5.83;;;;;;;2.63;68.16;102311.09;1749064;82;21011;-52
2021/10/10 02:42:46;;;;;;;12.95;5.42;;;;;;;2.62;68.01;102313.19;1749067;82;20921;-51
2021/10/10 02:45:13;;;;;;;15.23;5.95;;;;;;;2.60;67.83;102307.13;1749130;82;20960;-52
2021/10/10 02:47:40;;;;;;;16.70;4.92;;;;;;;2.61;67.70;102310.55;1749205;82;20975;-52
2021/10/10 02:50:08;;;;;;;12.60;4.92;;;;;;;2.61;67.61;102310.55;1749078;82;21150;-51
2021/10/10 02:52:34;;;;;;;13.88;6.22;;;;;;;2.61;67.73;102310.55;1749088;82;20975;-52
2021/10/10 02:55:04;;;;;;;23.07;5.97;;;;;;;2.59;67.77;102304.95;1749599;82;21024;-52
2021/10/10 02:57:30;;;;;;;9.68;5.17;;;;;;;2.59;67.71;102308.80;1714584;82;20960;-52
2021/10/10 02:59:57;;;;;;;19.50;5.83;;;;;;;2.59;68.08;102304.95;1749259;82;21031;-52
2021/10/10 03:02:23;;;;;;;10.63;6.10;;;;;;;2.58;67.86;102306.19;1721394;82;20965;-52
2021/10/10 03:04:50;;;;;;;13.88;4.95;;;;;;;2.57;67.56;102301.46;1714403;82;21031;-52
2021/10/10 03:07:16;;;;;;;11.88;5.35;;;;;;;2.55;67.03;102304.36;1749258;82;20931;-52
2021/10/10 03:09:43;;;;;;;13.43;6.10;;;;;;;2.53;66.75;102303.42;1749451;82;20967;-52
2021/10/10 03:12:10;;;;;;;11.28;6.17;;;;;;;2.53;66.58;102304.70;1749401;82;20999;-52
2021/10/10 03:14:36;;;;;;;14.07;6.47;;;;;;;2.50;66.68;102300.73;1749088;82;21109;-52
2021/10/10 03:17:03;;;;;;;19.85;6.08;;;;;;;2.49;66.73;102303.20;1749174;80;21466;-52
2021/10/10 03:19:29;;;;;;;14.03;6.53;;;;;;;2.46;66.43;102296.29;1749360;82;20971;-52
2021/10/10 03:21:56;;;;;;;15.90;6.08;;;;;;;2.45;66.94;102297.10;1749357;82;21558;-52
2021/10/10 03:24:23;;;;;;;14.90;6.42;;;;;;;2.43;67.73;102299.57;1749429;82;21521;-52
2021/10/10 03:26:49;;;;;;;13.35;6.45;;;;;;;2.42;66.99;102296.97;1749293;82;21117;-52
2021/10/10 03:29:15;;;;;;;18.90;6.40;;;;;;;2.39;67.36;102303.19;1749244;82;20968;-52
2021/10/10 03:31:42;;;;;;;18.15;6.62;;;;;;;2.39;66.96;102303.19;1749325;81;21482;-52
2021/10/10 03:34:09;;;;;;;15.53;6.78;;;;;;;2.39;66.60;102295.52;1749201;82;21019;-52
2021/10/10 03:36:35;;;;;;;11.48;6.20;;;;;;;2.40;66.30;102294.72;1749442;82;21026;-52
2021/10/10 03:39:02;;;;;;;12.47;6.30;;;;;;;2.42;66.30;102299.52;1749270;82;21796;-51
2021/10/10 03:41:28;;;;;;;14.87;7.00;;;;;;;2.43;65.91;102297.44;1749536;82;21027;-52
2021/10/10 03:43:55;;;;;;;17.12;7.12;;;;;;;2.46;65.80;102294.13;1749383;82;21458;-52
2021/10/10 03:46:21;;;;;;;14.38;7.30;;;;;;;2.47;65.86;102290.38;1749309;82;21585;-52
2021/10/10 03:48:47;;;;;;;14.15;7.53;;;;;;;2.53;65.86;102293.61;1721849;82;21696;-53
2021/10/10 03:51:14;;;;;;;16.35;6.55;;;;;;;2.53;66.26;102294.47;1749302;82;21157;-52
2021/10/10 03:56:26;;;;;;;19.15;6.60;;;;;;;2.58;66.23;102299.38;1749311;82;20889;-53
2021/10/10 03:58:52;;;;;;;22.05;6.53;;;;;;;2.59;66.28;102298.56;1749206;82;21502;-52
2021/10/10 04:01:19;;;;;;;16.27;6.30;;;;;;;2.61;66.30;102299.92;1749166;82;20968;-52
2021/10/10 04:03:45;;;;;;;22.85;6.05;;;;;;;2.64;66.71;102300.06;1714341;82;21905;-52
2021/10/10 04:06:11;;;;;;;10.68;5.53;;;;;;;2.66;66.73;102299.72;1749168;82;21695;-52
2021/10/10 04:08:43;;;;;;;19.50;5.60;;;;;;;2.70;66.72;102295.20;1749275;82;21549;-52
2021/10/10 04:11:06;;;;;;;9.33;5.90;;;;;;;2.74;67.08;102298.78;1748388;82;21557;-52
2021/10/10 04:13:33;;;;;;;15.50;6.33;;;;;;;2.78;67.16;102299.77;1749574;82;21024;-52
2021/10/10 04:15:59;;;;;;;13.28;5.83;;;;;;;2.81;67.48;102301.20;1749166;82;21148;-52
2021/10/10 04:18:26;;;;;;;17.77;6.50;;;;;;;2.83;66.61;102299.16;1749511;82;20995;-52
2021/10/10 04:20:52;;;;;;;21.07;7.30;;;;;;;2.87;66.23;102299.77;1749181;82;20996;-53
2021/10/10 04:23:19;;;;;;;11.78;5.80;;;;;;;2.88;65.76;102298.95;1749072;81;21003;-52
2021/10/10 04:25:45;;;;;;;13.78;6.55;;;;;;;2.92;65.45;102306.79;1749298;82;20920;-52
2021/10/10 04:28:11;;;;;;;13.93;6.55;;;;;;;2.94;65.22;102309.86;1749311;82;21174;-52
2021/10/10 04:30:38;;;;;;;18.95;6.95;;;;;;;2.96;65.03;102306.10;1749093;82;21529;-52
2021/10/10 04:33:04;;;;;;;15.45;6.12;;;;;;;2.99;64.85;102311.34;1749213;81;21455;-52
2021/10/10 04:35:31;;;;;;;16.40;6.65;;;;;;;2.99;64.82;102307.09;1749236;82;21481;-52
2021/10/10 04:37:58;;;;;;;18.95;6.85;;;;;;;3.02;64.66;102310.20;1749098;82;20971;-52
2021/10/10 04:40:24;;;;;;;13.10;6.58;;;;;;;3.05;64.52;102313.30;1749301;82;21768;-53
2021/10/10 04:42:50;;;;;;;15.18;6.80;;;;;;;3.07;64.91;102314.23;1749134;82;21545;-52
2021/10/10 04:45:17;;;;;;;20.45;6.67;;;;;;;3.09;64.78;102317.73;1749274;81;22622;-52
2021/10/10 04:47:43;;;;;;;12.53;6.95;;;;;;;3.12;64.95;102311.46;1749208;82;21487;-52
2021/10/10 04:50:10;;;;;;;19.57;7.50;;;;;;;3.13;65.43;102311.51;1749245;80;21043;-53
2021/10/10 04:52:37;;;;;;;12.60;7.05;;;;;;;3.17;65.26;102315.08;1749356;82;21935;-52
2021/10/10 04:55:05;;;;;;;17.90;7.47;;;;;;;3.22;65.52;102316.14;1749284;82;20920;-52
2021/10/10 04:57:33;;;;;;;12.25;7.05;;;;;;;3.27;65.06;102320.19;1749173;82;20948;-52
2021/10/10 04:59:59;;;;;;;12.40;6.12;;;;;;;3.31;65.14;102310.53;1749203;82;20968;-53
2021/10/10 05:02:25;;;;;;;15.53;6.33;;;;;;;3.38;65.54;102300.15;1749277;82;20951;-52
2021/10/10 05:04:52;;;;;;;14.05;6.30;;;;;;;3.43;65.95;102298.25;1749124;82;21149;-53
2021/10/10 05:07:19;;;;;;;17.42;6.12;;;;;;;3.50;66.09;102307.45;1749307;82;21014;-53
2021/10/10 05:09:48;;;;;;;14.07;6.55;;;;;;;3.58;65.95;102307.34;1749095;82;20913;-52
2021/10/10 05:12:15;;;;;;;14.53;6.90;;;;;;;3.67;66.09;102314.14;1749285;82;21494;-52
2021/10/10 05:14:42;;;;;;;18.37;6.55;;;;;;;3.75;65.88;102324.66;1721306;82;21039;-52
2021/10/10 05:17:08;;;;;;;13.13;6.37;;;;;;;3.87;65.70;102337.09;1749277;82;21928;-53
2021/10/10 05:19:35;;;;;;;19.12;7.53;;;;;;;3.97;65.35;102335.37;1749179;82;21510;-53
2021/10/10 05:22:02;;;;;;;26.07;6.90;;;;;;;4.07;65.17;102339.17;1749395;82;21576;-52
2021/10/10 05:24:29;;;;;;;15.00;6.58;;;;;;;4.14;64.59;102333.84;1748948;82;21003;-52
2021/10/10 05:26:57;;;;;;;25.88;7.15;;;;;;;4.26;64.54;102347.54;1714374;82;20975;-52
2021/10/10 05:29:23;;;;;;;13.83;7.03;;;;;;;4.36;64.49;102349.66;1749235;82;21101;-52
2021/10/10 05:31:50;;;;;;;18.02;7.75;;;;;;;4.43;64.06;102343.07;1748977;81;20943;-52
2021/10/10 05:34:16;;;;;;;24.90;9.83;;;;;;;4.50;64.21;102341.19;1749207;82;20897;-52
2021/10/10 05:36:43;;;;;;;25.00;10.25;;;;;;;4.59;63.72;102341.52;1749161;82;21015;-52
2021/10/10 05:39:09;;;;;;;22.07;9.73;;;;;;;4.68;63.28;102342.69;1749152;82;20987;-52
2021/10/10 05:41:36;;;;;;;25.17;10.18;;;;;;;4.76;63.07;102342.55;1749141;82;21102;-53
2021/10/10 05:44:03;;;;;;;26.57;10.63;;;;;;;4.84;62.37;102347.53;1719902;82;20952;-52
2021/10/10 05:46:29;;;;;;;39.78;13.95;;;;;;;4.92;62.20;102346.92;1749164;80;21007;-52
2021/10/10 05:48:56;;;;;;;39.00;16.15;;;;;;;5.00;61.65;102347.66;1749478;82;20925;-53
2021/10/10 05:51:22;;;;;;;43.17;17.75;;;;;;;5.08;61.12;102346.65;1749224;82;20952;-52
2021/10/10 05:53:49;;;;;;;52.33;19.62;;;;;;;5.14;60.85;102345.56;1749363;82;21163;-52
2021/10/10 05:56:17;;;;;;;57.00;17.17;;;;;;;5.30;59.89;102353.41;1748955;81;20971;-53
2021/10/10 05:58:45;;;;;;;49.77;20.82;;;;;;;5.30;59.89;102353.41;1749534;82;20991;-52
2021/10/10 06:01:11;;;;;;;61.15;23.42;;;;;;;5.37;59.78;102348.47;1749173;82;20924;-52
2021/10/10 06:03:38;;;;;;;42.15;19.40;;;;;;;5.46;59.66;102348.37;1720373;82;20992;-52
2021/10/10 06:06:04;;;;;;;41.85;17.00;;;;;;;5.55;59.51;102351.63;1749121;81;21520;-52
2021/10/10 06:08:31;;;;;;;34.78;15.83;;;;;;;5.64;58.89;102352.34;1749142;82;20979;-52
2021/10/10 06:10:57;;;;;;;27.37;12.25;;;;;;;5.75;59.00;102346.27;1720460;82;20940;-52
2021/10/10 06:13:25;;;;;;;23.45;11.30;;;;;;;5.86;58.16;102350.46;1749211;82;21018;-52
2021/10/10 06:15:51;;;;;;;25.60;10.72;;;;;;;5.95;57.82;102357.20;1749417;82;20991;-52
2021/10/10 06:18:18;;;;;;;24.30;10.20;;;;;;;6.07;57.44;102356.73;1749018;81;21926;-53
2021/10/10 06:20:44;;;;;;;24.18;9.28;;;;;;;6.18;57.51;102354.06;1749349;82;21019;-52
2021/10/10 06:23:11;;;;;;;19.25;8.43;;;;;;;6.30;57.51;102354.84;1748963;82;21011;-52
2021/10/10 06:25:37;;;;;;;32.35;8.25;;;;;;;6.44;57.20;102353.08;1749060;82;20940;-52
2021/10/10 06:28:04;;;;;;;20.30;7.80;;;;;;;6.59;56.83;102355.25;1749272;82;21597;-53
2021/10/10 06:30:31;;;;;;;25.60;6.70;;;;;;;6.71;56.34;102346.56;1749170;82;21840;-53
2021/10/10 06:32:58;;;;;;;17.17;7.12;;;;;;;6.85;55.39;102352.09;1749152;81;20979;-52
2021/10/10 06:35:25;;;;;;;17.20;6.72;;;;;;;6.97;55.27;102352.84;1749225;82;21003;-53
2021/10/10 06:37:51;;;;;;;30.88;10.23;;;;;;;7.09;55.03;102347.15;1749320;82;21534;-52
2021/10/10 06:40:17;;;;;;;42.30;17.10;;;;;;;7.24;55.09;102350.97;1749170;82;20963;-52
2021/10/10 06:42:44;;;;;;;52.70;20.43;;;;;;;7.39;54.83;102344.05;1749416;81;21887;-53
2021/10/10 06:45:10;;;;;;;64.45;28.62;;;;;;;7.54;54.38;102348.27;1749141;82;21064;-53
2021/10/10 06:48:39;;;;;;;57.90;19.50;;;;;;;7.80;53.78;102339.42;1797591;79;22672;-52
2021/10/10 06:51:06;;;;;;;25.57;12.85;;;;;;;7.91;53.40;102340.53;1757399;81;21648;-51
2021/10/10 06:53:32;;;;;;;23.10;8.73;;;;;;;8.04;50.02;102329.67;1737995;81;22026;-51
2021/10/10 06:56:04;;;;;;;14.73;6.45;;;;;;;8.14;50.54;102335.02;1757396;81;20999;-51
2021/10/10 06:58:27;;;;;;;18.02;5.72;;;;;;;8.26;49.14;102331.43;1756881;81;20947;-52
2021/10/10 07:00:54;;;;;;;15.58;5.80;;;;;;;8.40;47.62;102324.38;1757239;81;20933;-53
2021/10/10 07:03:20;;;;;;;17.42;6.70;;;;;;;8.46;47.23;102320.22;1757370;81;21491;-53
2021/10/10 07:05:47;;;;;;;13.83;6.08;;;;;;;8.57;47.47;102319.58;1751663;81;21143;-52
2021/10/10 07:08:14;;;;;;;18.82;6.58;;;;;;;8.66;46.89;102326.64;1748881;82;20983;-52
2021/10/10 07:10:41;;;;;;;20.60;14.65;;;;;;;8.75;46.59;102329.42;1749143;82;22053;-53
2021/10/10 07:13:09;;;;;;;22.60;10.03;;;;;;;8.85;45.97;102335.20;1749072;82;21605;-53
2021/10/10 07:15:37;;;;;;;25.30;9.73;;;;;;;8.91;45.93;102343.48;1749177;81;21530;-52
2021/10/10 07:18:05;;;;;;;15.15;6.15;;;;;;;9.00;45.83;102337.19;1749113;82;21160;-52
2021/10/10 07:23:55;;;;;;;16.25;9.23;;;;;;;9.23;45.01;102339.75;1726007;83;20948;-54
2021/10/10 07:25:59;;;;;;;18.77;7.87;;;;;;;9.41;44.40;102335.31;1697976;83;21620;-52
2021/10/10 07:28:26;;;;;;;17.17;7.72;;;;;;;9.47;44.06;102329.82;1735832;82;21020;-53
2021/10/10 07:30:52;;;;;;;17.90;6.83;;;;;;;9.57;43.78;102335.13;1749039;82;21129;-53
2021/10/10 07:33:19;;;;;;;19.57;6.83;;;;;;;9.64;43.60;102324.02;1749057;82;20940;-53
2021/10/10 07:35:45;;;;;;;12.43;6.12;;;;;;;9.73;43.43;102331.05;1749147;81;21015;-53
2021/10/10 07:38:12;;;;;;;15.50;5.90;;;;;;;9.80;44.13;102328.14;1749054;82;20960;-53
2021/10/10 07:40:39;;;;;;;18.82;6.08;;;;;;;9.94;43.41;102325.31;1748989;82;20893;-52
2021/10/10 07:43:06;;;;;;;21.55;6.97;;;;;;;10.09;41.91;102332.42;1748967;81;21173;-52
2021/10/10 07:45:40;;;;;;;17.80;6.45;;;;;;;10.19;41.82;102333.41;1720184;82;21012;-53
2021/10/10 07:48:04;;;;;;;22.22;6.30;;;;;;;10.32;41.73;102328.85;1739586;81;21000;-53
2021/10/10 07:50:30;;;;;;;19.90;6.50;;;;;;;10.50;41.45;102323.50;1735811;82;20997;-53
2021/10/10 07:52:57;;;;;;;21.80;7.03;;;;;;;10.68;42.47;102328.01;1735937;82;20992;-53
2021/10/10 07:55:24;;;;;;;16.93;6.40;;;;;;;10.97;42.16;102324.84;1735773;82;21196;-53
2021/10/10 07:57:50;;;;;;;19.60;6.50;;;;;;;11.32;42.42;102318.25;1735672;81;20936;-54
2021/10/10 08:00:17;;;;;;;17.15;5.87;;;;;;;11.67;41.15;102316.33;1735372;82;20976;-53
2021/10/10 08:02:55;;;;;;;18.23;5.25;;;;;;;11.93;39.84;102322.99;1735126;82;20972;-53
2021/10/10 08:05:23;;;;;;;10.88;4.28;;;;;;;12.11;38.59;102317.91;1735330;82;21506;-51
2021/10/10 08:07:50;;;;;;;13.45;5.37;;;;;;;12.21;38.00;102316.67;1714308;82;21091;-51
2021/10/10 08:10:17;;;;;;;13.15;4.87;;;;;;;12.26;37.93;102316.70;1714096;82;20956;-52
2021/10/10 08:12:45;;;;;;;11.60;5.33;;;;;;;12.32;36.93;102314.12;1735220;82;20893;-52
2021/10/10 08:15:12;;;;;;;12.35;4.97;;;;;;;12.32;37.04;102316.72;1735525;82;20984;-52
2021/10/10 08:17:40;;;;;;;20.85;5.37;;;;;;;12.32;37.17;102314.12;1735583;82;20854;-52
2021/10/10 08:20:10;;;;;;;17.67;5.30;;;;;;;12.38;37.22;102309.39;1736079;82;20986;-52
2021/10/10 08:22:37;;;;;;;14.70;4.05;;;;;;;12.48;35.92;102305.06;1715681;82;20993;-52
2021/10/10 08:25:09;;;;;;;15.40;3.70;;;;;;;12.54;36.93;102315.91;1715292;82;20984;-52
2021/10/10 08:27:35;;;;;;;22.50;3.98;;;;;;;12.65;35.12;102307.73;1679263;82;21450;-52
2021/10/10 08:30:03;;;;;;;16.55;4.65;;;;;;;12.74;35.40;102314.23;1736354;82;21371;-53
2021/10/10 08:32:30;;;;;;;12.68;3.52;;;;;;;12.86;36.03;102306.89;1715436;82;21504;-53
2021/10/10 08:34:56;;;;;;;15.60;4.00;;;;;;;13.03;35.96;102313.86;1736517;82;20869;-53
2021/10/10 08:37:23;;;;;;;14.20;3.77;;;;;;;13.19;34.25;102310.38;1736024;82;20902;-53
2021/10/10 08:39:50;;;;;;;12.95;3.70;;;;;;;13.23;33.15;102312.11;1736140;82;20870;-53
2021/10/10 08:42:21;;;;;;;9.78;3.67;;;;;;;13.17;34.10;102308.66;1736050;82;21043;-52
2021/10/10 08:44:49;;;;;;;9.68;3.35;;;;;;;13.30;33.78;102297.83;1736131;82;21400;-53
2021/10/10 08:47:17;;;;;;;17.50;4.03;;;;;;;13.44;33.80;102308.25;1738619;81;20917;-52
2021/10/10 08:49:45;;;;;;;20.25;3.95;;;;;;;13.65;33.70;102304.74;1722195;82;20944;-52
2021/10/10 08:52:14;;;;;;;15.63;4.58;;;;;;;13.88;32.36;102300.77;1750402;82;21451;-52
2021/10/10 08:54:42;;;;;;;15.30;4.05;;;;;;;14.00;32.21;102295.96;1750175;82;20936;-53
2021/10/10 08:57:09;;;;;;;12.30;3.60;;;;;;;14.16;31.83;102298.09;1750279;80;21096;-53
2021/10/10 08:59:42;;;;;;;21.87;3.75;;;;;;;14.30;32.48;102294.13;1750131;82;20932;-53
2021/10/10 09:02:17;;;;;;;20.85;3.50;;;;;;;14.57;32.16;102296.16;1750451;82;20976;-51
2021/10/10 09:04:40;;;;;;;12.30;3.12;;;;;;;14.69;31.83;102293.91;1749407;82;20885;-52
2021/10/10 09:07:07;;;;;;;7.67;3.10;;;;;;;14.69;31.27;102299.55;1750019;82;20964;-53
2021/10/10 09:09:41;;;;;;;13.38;3.70;;;;;;;14.65;31.68;102298.69;1749896;82;22279;-52
2021/10/10 09:12:08;;;;;;;8.53;3.35;;;;;;;14.53;31.52;102296.17;1748656;82;20917;-53
2021/10/10 09:14:46;;;;;;;8.90;3.55;;;;;;;14.46;31.39;102284.48;1722295;82;21450;-52
2021/10/10 09:17:19;;;;;;;9.08;2.90;;;;;;;14.37;31.23;102295.82;1750337;82;20897;-53
2021/10/10 09:19:53;;;;;;;13.68;3.10;;;;;;;14.24;31.33;102290.22;1750113;81;20897;-52
2021/10/10 09:22:22;;;;;;;9.75;3.50;;;;;;;14.13;31.07;102286.81;1750361;81;21058;-52
2021/10/10 09:24:54;;;;;;;12.28;4.35;;;;;;;13.92;32.39;102288.20;1750230;82;21439;-52
2021/10/10 09:27:26;;;;;;;13.38;3.67;;;;;;;13.95;32.88;102292.52;1749928;82;20973;-52
2021/10/10 09:29:51;;;;;;;10.38;3.98;;;;;;;14.02;32.65;102281.65;1749895;82;20964;-53
2021/10/10 09:32:21;;;;;;;19.10;4.87;;;;;;;14.09;33.49;102283.34;1750024;82;21034;-52
2021/10/10 09:34:49;;;;;;;23.70;3.87;;;;;;;14.22;32.28;102281.55;1750250;82;21132;-52
2021/10/10 09:37:21;;;;;;;11.35;3.33;;;;;;;14.25;32.11;102282.84;1750106;82;20920;-52
2021/10/10 09:40:01;;;;;;;11.88;3.40;;;;;;;14.32;32.55;102278.47;1750115;81;20857;-52
2021/10/10 09:42:42;;;;;;;12.40;3.60;;;;;;;14.41;31.93;102278.44;1749899;82;21007;-53
2021/10/10 09:47:56;;;;;;;7.67;3.50;;;;;;;14.24;32.10;102279.80;1745370;81;21479;-52
2021/10/10 09:50:24;;;;;;;11.25;4.35;;;;;;;14.03;32.71;102282.95;1735905;81;21352;-52
2021/10/10 09:53:07;;;;;;;13.35;4.15;;;;;;;13.89;33.39;102282.13;1735981;82;20854;-52
2021/10/10 09:55:58;;;;;;;15.58;4.33;;;;;;;13.88;33.89;102281.70;1735908;82;21031;-52
2021/10/10 09:58:35;;;;;;;8.13;3.45;;;;;;;13.91;33.49;102281.27;1736010;82;20953;-52
2021/10/10 10:01:20;;;;;;;16.82;3.87;;;;;;;13.92;32.87;102280.81;1736292;82;21118;-52
2021/10/10 10:04:08;;;;;;;11.53;4.33;;;;;;;13.93;33.46;102276.91;1714934;82;20990;-53
2021/10/10 10:06:38;;;;;;;19.12;6.10;;;;;;;14.03;33.11;102281.66;1735949;82;20893;-51
2021/10/10 10:09:09;;;;;;;12.43;6.20;;;;;;;14.10;33.39;102273.81;1735781;82;20929;-51
2021/10/10 10:11:42;;;;;;;8.23;4.92;;;;;;;14.16;33.31;102281.59;1736109;82;21027;-52
2021/10/10 10:14:12;;;;;;;11.55;4.45;;;;;;;14.21;32.93;102273.31;1735943;81;21124;-52
2021/10/10 10:16:49;;;;;;;7.80;3.75;;;;;;;14.26;32.66;102276.75;1735821;82;20960;-52
2021/10/10 10:19:21;;;;;;;10.23;3.40;;;;;;;14.22;32.96;102273.32;1735903;82;20905;-53
2021/10/10 10:21:52;;;;;;;9.13;4.08;;;;;;;14.21;32.44;102271.59;1736060;82;20988;-53
2021/10/10 10:24:20;;;;;;;15.58;3.67;;;;;;;14.34;32.37;102274.12;1736192;82;20980;-52
2021/10/10 10:26:47;;;;;;;10.75;3.70;;;;;;;14.42;32.28;102272.36;1714918;82;21318;-53
2021/10/10 10:29:25;;;;;;;10.60;3.58;;;;;;;14.52;31.63;102271.84;1735875;82;20976;-53
2021/10/10 10:31:58;;;;;;;9.83;2.70;;;;;;;14.59;32.01;102270.95;1715390;82;21225;-53
2021/10/10 10:34:30;;;;;;;8.08;2.22;;;;;;;14.62;30.44;102274.83;1735901;82;21495;-53
2021/10/10 10:37:03;;;;;;;5.42;1.98;;;;;;;14.66;29.43;102269.17;1736050;82;20960;-53
2021/10/10 10:39:47;;;;;;;9.23;2.25;;;;;;;14.66;29.54;102275.69;1736028;82;21128;-53
2021/10/10 10:42:29;;;;;;;8.38;2.40;;;;;;;14.63;29.58;102270.05;1735747;82;20936;-53
2021/10/10 10:44:55;;;;;;;9.05;2.80;;;;;;;14.60;29.95;102275.70;1736415;82;20886;-53
2021/10/10 10:47:27;;;;;;;8.88;3.02;;;;;;;14.46;29.52;102265.37;1735888;82;21012;-53
2021/10/10 10:50:04;;;;;;;4.50;2.85;;;;;;;14.33;29.86;102263.27;1714960;82;20977;-53
2021/10/10 10:52:36;;;;;;;8.93;2.95;;;;;;;14.30;31.51;102267.20;1735618;82;21095;-52
2021/10/10 10:55:19;;;;;;;9.20;3.17;;;;;;;14.40;31.60;102262.80;1714987;82;20992;-52
2021/10/10 10:58:11;;;;;;;8.58;4.47;;;;;;;14.47;30.16;102259.28;1736029;82;20897;-53
2021/10/10 11:00:46;;;;;;;8.15;3.45;;;;;;;14.34;30.18;102266.30;1707332;82;20973;-52
2021/10/10 11:03:26;;;;;;;7.47;3.80;;;;;;;14.16;30.95;102263.36;1716482;82;20984;-52
2021/10/10 11:06:09;;;;;;;13.85;3.50;;;;;;;14.13;31.69;102260.78;1736020;82;21829;-53
2021/10/10 11:08:38;;;;;;;10.32;3.95;;;;;;;14.27;30.96;102251.59;1735963;82;20882;-52
2021/10/10 11:11:17;;;;;;;10.60;3.85;;;;;;;14.30;31.54;102261.56;1736099;82;21376;-53
2021/10/10 11:13:58;;;;;;;9.43;6.47;;;;;;;14.36;31.53;102256.31;1736084;82;21506;-52
2021/10/10 11:16:32;;;;;;;17.12;8.45;;;;;;;14.46;31.55;102253.64;1736361;82;20905;-53
2021/10/10 11:19:11;;;;;;;26.65;13.10;;;;;;;14.50;31.94;102253.63;1736048;82;21093;-52
2021/10/10 11:21:45;;;;;;;36.53;16.10;;;;;;;14.54;31.96;102249.27;1736181;82;20992;-52
2021/10/10 11:24:18;;;;;;;14.70;4.85;;;;;;;14.62;32.32;102250.08;1713663;82;21035;-53
2021/10/10 11:26:42;;;;;;;9.80;3.90;;;;;;;14.61;32.04;102248.34;1735758;82;20937;-53
2021/10/10 11:29:12;;;;;;;9.90;3.30;;;;;;;14.54;32.17;102246.67;1735920;82;20889;-53
2021/10/10 11:31:40;;;;;;;11.03;4.25;;;;;;;14.51;32.51;102245.36;1735850;81;21051;-53
2021/10/10 11:34:09;;;;;;;18.15;6.60;;;;;;;14.53;32.66;102242.75;1736064;82;21408;-53
2021/10/10 11:36:44;;;;;;;14.03;4.15;;;;;;;14.56;32.97;102237.09;1736062;82;20909;-53